sensor_id;sensor_type;location;lat;lon;timestamp;temperature;humidity
68433;DHT22;55412;51.350;17.056;2023-08-07T00:01:01;16.10;82.20
68433;DHT22;55412;51.350;17.056;2023-08-07T00:03:27;16.10;82.10
68433;DHT22;55412;51.350;17.056;2023-08-07T00:05:53;16.10;82.00
68433;DHT22;55412;51.350;17.056;2023-08-07T00:08:21;16.10;82.00
68433;DHT22;55412;51.350;17.056;2023-08-07T00:10:47;16.10;81.90
68433;DHT22;55412;51.350;17.056;2023-08-07T00:13:14;16.10;81.80
68433;DHT22;55412;51.350;17.056;2023-08-07T00:15:40;16.10;81.70
68433;DHT22;55412;51.350;17.056;2023-08-07T00:18:06;16.10;81.50
68433;DHT22;55412;51.350;17.056;2023-08-07T00:20:32;16.10;81.40
68433;DHT22;55412;51.350;17.056;2023-08-07T00:22:59;16.10;81.30
68433;DHT22;55412;51.350;17.056;2023-08-07T00:25:25;16.10;81.10
68433;DHT22;55412;51.350;17.056;2023-08-07T00:27:51;16.10;81.10
68433;DHT22;55412;51.350;17.056;2023-08-07T00:30:17;16.10;80.90
68433;DHT22;55412;51.350;17.056;2023-08-07T00:32:43;16.10;80.90
68433;DHT22;55412;51.350;17.056;2023-08-07T00:35:09;16.10;80.70
68433;DHT22;55412;51.350;17.056;2023-08-07T00:37:36;16.10;80.60
68433;DHT22;55412;51.350;17.056;2023-08-07T00:40:02;16.10;80.60
68433;DHT22;55412;51.350;17.056;2023-08-07T00:42:29;16.10;80.30
68433;DHT22;55412;51.350;17.056;2023-08-07T00:44:55;16.10;80.30
68433;DHT22;55412;51.350;17.056;2023-08-07T00:47:21;16.10;80.20
68433;DHT22;55412;51.350;17.056;2023-08-07T00:49:48;16.10;80.10
68433;DHT22;55412;51.350;17.056;2023-08-07T00:52:14;16.10;80.00
68433;DHT22;55412;51.350;17.056;2023-08-07T00:54:42;16.10;79.80
68433;DHT22;55412;51.350;17.056;2023-08-07T00:57:12;16.00;79.90
68433;DHT22;55412;51.350;17.056;2023-08-07T00:59:40;16.00;79.90
68433;DHT22;55412;51.350;17.056;2023-08-07T01:02:07;16.00;80.00
68433;DHT22;55412;51.350;17.056;2023-08-07T01:04:34;16.00;80.10
68433;DHT22;55412;51.350;17.056;2023-08-07T01:07:01;16.00;79.80
68433;DHT22;55412;51.350;17.056;2023-08-07T01:09:27;16.00;79.80
68433;DHT22;55412;51.350;17.056;2023-08-07T01:12:18;16.00;79.80
68433;DHT22;55412;51.350;17.056;2023-08-07T01:15:07;16.00;79.60
68433;DHT22;55412;51.350;17.056;2023-08-07T01:17:39;16.00;79.70
68433;DHT22;55412;51.350;17.056;2023-08-07T01:20:07;16.00;79.70
68433;DHT22;55412;51.350;17.056;2023-08-07T01:22:34;16.00;79.60
68433;DHT22;55412;51.350;17.056;2023-08-07T01:25:00;16.00;79.60
68433;DHT22;55412;51.350;17.056;2023-08-07T01:27:41;16.00;79.60
68433;DHT22;55412;51.350;17.056;2023-08-07T01:35:21;15.90;79.60
68433;DHT22;55412;51.350;17.056;2023-08-07T01:37:53;15.90;79.60
68433;DHT22;55412;51.350;17.056;2023-08-07T01:40:22;15.90;79.50
68433;DHT22;55412;51.350;17.056;2023-08-07T01:42:48;15.90;79.70
68433;DHT22;55412;51.350;17.056;2023-08-07T01:45:25;15.90;79.50
68433;DHT22;55412;51.350;17.056;2023-08-07T01:47:52;15.90;79.70
68433;DHT22;55412;51.350;17.056;2023-08-07T01:50:19;15.90;79.60
68433;DHT22;55412;51.350;17.056;2023-08-07T01:52:46;15.90;79.50
68433;DHT22;55412;51.350;17.056;2023-08-07T01:55:14;15.90;79.30
68433;DHT22;55412;51.350;17.056;2023-08-07T01:57:41;15.90;79.30
68433;DHT22;55412;51.350;17.056;2023-08-07T02:00:08;15.90;79.20
68433;DHT22;55412;51.350;17.056;2023-08-07T02:02:35;15.90;79.20
68433;DHT22;55412;51.350;17.056;2023-08-07T02:05:02;15.90;79.30
68433;DHT22;55412;51.350;17.056;2023-08-07T02:07:29;15.90;79.30
68433;DHT22;55412;51.350;17.056;2023-08-07T02:09:56;15.90;79.30
68433;DHT22;55412;51.350;17.056;2023-08-07T02:12:23;15.90;79.30
68433;DHT22;55412;51.350;17.056;2023-08-07T02:14:50;15.80;79.50
68433;DHT22;55412;51.350;17.056;2023-08-07T02:17:16;15.80;79.40
68433;DHT22;55412;51.350;17.056;2023-08-07T02:19:42;15.80;79.40
68433;DHT22;55412;51.350;17.056;2023-08-07T02:22:08;15.80;79.60
68433;DHT22;55412;51.350;17.056;2023-08-07T02:24:34;15.80;79.50
68433;DHT22;55412;51.350;17.056;2023-08-07T02:27:00;15.80;79.60
68433;DHT22;55412;51.350;17.056;2023-08-07T02:29:27;15.80;79.60
68433;DHT22;55412;51.350;17.056;2023-08-07T02:31:53;15.80;79.90
68433;DHT22;55412;51.350;17.056;2023-08-07T02:34:19;15.80;79.90
68433;DHT22;55412;51.350;17.056;2023-08-07T02:36:45;15.80;80.10
68433;DHT22;55412;51.350;17.056;2023-08-07T02:39:13;15.80;80.30
68433;DHT22;55412;51.350;17.056;2023-08-07T02:41:39;15.80;80.40
68433;DHT22;55412;51.350;17.056;2023-08-07T02:44:06;15.80;80.40
68433;DHT22;55412;51.350;17.056;2023-08-07T02:46:32;15.80;80.50
68433;DHT22;55412;51.350;17.056;2023-08-07T02:49:00;15.80;80.60
68433;DHT22;55412;51.350;17.056;2023-08-07T02:51:26;15.80;80.60
68433;DHT22;55412;51.350;17.056;2023-08-07T02:53:52;15.80;80.60
68433;DHT22;55412;51.350;17.056;2023-08-07T02:56:18;15.80;80.60
68433;DHT22;55412;51.350;17.056;2023-08-07T02:58:44;15.80;80.60
68433;DHT22;55412;51.350;17.056;2023-08-07T03:01:10;15.80;80.90
68433;DHT22;55412;51.350;17.056;2023-08-07T03:03:37;15.80;80.90
68433;DHT22;55412;51.350;17.056;2023-08-07T03:06:03;15.80;80.80
68433;DHT22;55412;51.350;17.056;2023-08-07T03:08:29;15.80;81.00
68433;DHT22;55412;51.350;17.056;2023-08-07T03:10:57;15.80;80.90
68433;DHT22;55412;51.350;17.056;2023-08-07T03:13:24;15.80;80.90
68433;DHT22;55412;51.350;17.056;2023-08-07T03:15:59;15.80;80.90
68433;DHT22;55412;51.350;17.056;2023-08-07T03:18:26;15.80;80.90
68433;DHT22;55412;51.350;17.056;2023-08-07T03:20:54;15.80;81.10
68433;DHT22;55412;51.350;17.056;2023-08-07T03:23:22;15.90;80.90
68433;DHT22;55412;51.350;17.056;2023-08-07T03:25:49;15.80;80.90
68433;DHT22;55412;51.350;17.056;2023-08-07T03:28:16;15.90;80.90
68433;DHT22;55412;51.350;17.056;2023-08-07T03:30:43;15.90;80.80
68433;DHT22;55412;51.350;17.056;2023-08-07T03:33:10;15.90;80.60
68433;DHT22;55412;51.350;17.056;2023-08-07T03:35:36;15.90;80.40
68433;DHT22;55412;51.350;17.056;2023-08-07T03:38:03;15.90;80.20
68433;DHT22;55412;51.350;17.056;2023-08-07T03:40:29;15.90;80.10
68433;DHT22;55412;51.350;17.056;2023-08-07T03:42:55;15.90;80.20
68433;DHT22;55412;51.350;17.056;2023-08-07T03:45:21;15.90;80.20
68433;DHT22;55412;51.350;17.056;2023-08-07T03:47:47;15.90;80.10
68433;DHT22;55412;51.350;17.056;2023-08-07T03:50:13;15.90;79.90
68433;DHT22;55412;51.350;17.056;2023-08-07T03:52:39;15.90;79.90
68433;DHT22;55412;51.350;17.056;2023-08-07T03:55:05;15.90;80.00
68433;DHT22;55412;51.350;17.056;2023-08-07T03:57:32;15.90;80.00
68433;DHT22;55412;51.350;17.056;2023-08-07T03:59:58;15.90;80.00
68433;DHT22;55412;51.350;17.056;2023-08-07T04:02:24;15.90;79.80
68433;DHT22;55412;51.350;17.056;2023-08-07T04:04:51;15.90;79.60
68433;DHT22;55412;51.350;17.056;2023-08-07T04:07:17;16.00;79.70
68433;DHT22;55412;51.350;17.056;2023-08-07T04:09:43;16.00;79.70
68433;DHT22;55412;51.350;17.056;2023-08-07T04:12:09;15.90;79.70
68433;DHT22;55412;51.350;17.056;2023-08-07T04:14:35;16.00;79.70
68433;DHT22;55412;51.350;17.056;2023-08-07T04:17:01;16.00;79.80
68433;DHT22;55412;51.350;17.056;2023-08-07T04:19:27;16.00;79.80
68433;DHT22;55412;51.350;17.056;2023-08-07T04:21:53;16.00;79.60
68433;DHT22;55412;51.350;17.056;2023-08-07T04:24:20;16.00;79.70
68433;DHT22;55412;51.350;17.056;2023-08-07T04:26:46;16.00;79.80
68433;DHT22;55412;51.350;17.056;2023-08-07T04:29:12;16.00;79.70
68433;DHT22;55412;51.350;17.056;2023-08-07T04:31:38;16.00;79.70
68433;DHT22;55412;51.350;17.056;2023-08-07T04:34:04;16.00;79.70
68433;DHT22;55412;51.350;17.056;2023-08-07T04:36:30;16.00;79.70
68433;DHT22;55412;51.350;17.056;2023-08-07T04:38:56;16.00;79.60
68433;DHT22;55412;51.350;17.056;2023-08-07T04:41:22;16.10;79.50
68433;DHT22;55412;51.350;17.056;2023-08-07T04:43:49;16.10;79.50
68433;DHT22;55412;51.350;17.056;2023-08-07T04:46:15;16.10;79.40
68433;DHT22;55412;51.350;17.056;2023-08-07T04:48:42;16.10;79.40
68433;DHT22;55412;51.350;17.056;2023-08-07T04:51:09;16.10;79.30
68433;DHT22;55412;51.350;17.056;2023-08-07T04:53:35;16.10;78.80
68433;DHT22;55412;51.350;17.056;2023-08-07T04:56:02;16.10;78.60
68433;DHT22;55412;51.350;17.056;2023-08-07T04:58:28;16.10;78.60
68433;DHT22;55412;51.350;17.056;2023-08-07T05:00:56;16.10;78.70
68433;DHT22;55412;51.350;17.056;2023-08-07T05:03:23;16.10;78.60
68433;DHT22;55412;51.350;17.056;2023-08-07T05:05:49;16.10;78.80
68433;DHT22;55412;51.350;17.056;2023-08-07T05:08:16;16.10;78.50
68433;DHT22;55412;51.350;17.056;2023-08-07T05:10:43;16.20;78.40
68433;DHT22;55412;51.350;17.056;2023-08-07T05:13:09;16.20;78.30
68433;DHT22;55412;51.350;17.056;2023-08-07T05:15:35;16.20;78.20
68433;DHT22;55412;51.350;17.056;2023-08-07T05:18:01;16.20;78.30
68433;DHT22;55412;51.350;17.056;2023-08-07T05:20:27;16.20;78.40
68433;DHT22;55412;51.350;17.056;2023-08-07T05:22:54;16.20;78.20
68433;DHT22;55412;51.350;17.056;2023-08-07T05:25:21;16.20;78.00
68433;DHT22;55412;51.350;17.056;2023-08-07T05:27:47;16.20;77.90
68433;DHT22;55412;51.350;17.056;2023-08-07T05:30:14;16.20;78.00
68433;DHT22;55412;51.350;17.056;2023-08-07T05:32:40;16.30;78.10
68433;DHT22;55412;51.350;17.056;2023-08-07T05:35:07;16.30;78.00
68433;DHT22;55412;51.350;17.056;2023-08-07T05:37:34;16.20;77.90
68433;DHT22;55412;51.350;17.056;2023-08-07T05:40:01;16.30;78.00
68433;DHT22;55412;51.350;17.056;2023-08-07T05:42:28;16.30;78.10
68433;DHT22;55412;51.350;17.056;2023-08-07T05:44:55;16.30;77.90
68433;DHT22;55412;51.350;17.056;2023-08-07T05:47:21;16.30;77.90
68433;DHT22;55412;51.350;17.056;2023-08-07T05:49:48;16.30;77.80
68433;DHT22;55412;51.350;17.056;2023-08-07T05:52:14;16.30;77.80
68433;DHT22;55412;51.350;17.056;2023-08-07T05:54:41;16.30;77.90
68433;DHT22;55412;51.350;17.056;2023-08-07T05:57:07;16.30;77.90
68433;DHT22;55412;51.350;17.056;2023-08-07T05:59:33;16.30;78.00
68433;DHT22;55412;51.350;17.056;2023-08-07T06:02:00;16.40;78.10
68433;DHT22;55412;51.350;17.056;2023-08-07T06:04:26;16.40;78.20
68433;DHT22;55412;51.350;17.056;2023-08-07T06:06:53;16.40;77.80
68433;DHT22;55412;51.350;17.056;2023-08-07T06:09:23;16.40;77.70
68433;DHT22;55412;51.350;17.056;2023-08-07T06:11:49;16.40;77.80
68433;DHT22;55412;51.350;17.056;2023-08-07T06:14:15;16.50;77.80
68433;DHT22;55412;51.350;17.056;2023-08-07T06:16:41;16.50;77.80
68433;DHT22;55412;51.350;17.056;2023-08-07T06:19:08;16.50;78.00
68433;DHT22;55412;51.350;17.056;2023-08-07T06:21:34;16.50;78.10
68433;DHT22;55412;51.350;17.056;2023-08-07T06:24:00;16.50;78.20
68433;DHT22;55412;51.350;17.056;2023-08-07T06:26:26;16.60;78.10
68433;DHT22;55412;51.350;17.056;2023-08-07T06:28:52;16.60;78.10
68433;DHT22;55412;51.350;17.056;2023-08-07T06:31:18;16.60;78.00
68433;DHT22;55412;51.350;17.056;2023-08-07T06:33:45;16.70;78.10
68433;DHT22;55412;51.350;17.056;2023-08-07T06:36:14;16.70;77.90
68433;DHT22;55412;51.350;17.056;2023-08-07T06:38:40;16.70;77.80
68433;DHT22;55412;51.350;17.056;2023-08-07T06:41:06;16.70;77.80
68433;DHT22;55412;51.350;17.056;2023-08-07T06:43:34;16.80;77.70
68433;DHT22;55412;51.350;17.056;2023-08-07T06:46:00;16.80;77.60
68433;DHT22;55412;51.350;17.056;2023-08-07T06:48:26;16.90;78.10
68433;DHT22;55412;51.350;17.056;2023-08-07T06:50:52;17.00;79.90
68433;DHT22;55412;51.350;17.056;2023-08-07T06:53:19;17.20;79.10
68433;DHT22;55412;51.350;17.056;2023-08-07T06:55:45;17.40;79.20
68433;DHT22;55412;51.350;17.056;2023-08-07T06:58:12;17.60;78.00
68433;DHT22;55412;51.350;17.056;2023-08-07T07:00:38;17.80;76.50
68433;DHT22;55412;51.350;17.056;2023-08-07T07:03:04;18.00;74.80
68433;DHT22;55412;51.350;17.056;2023-08-07T07:05:32;18.20;73.60
68433;DHT22;55412;51.350;17.056;2023-08-07T07:07:59;18.40;73.20
68433;DHT22;55412;51.350;17.056;2023-08-07T07:10:25;18.50;71.40
68433;DHT22;55412;51.350;17.056;2023-08-07T07:12:51;18.60;70.40
68433;DHT22;55412;51.350;17.056;2023-08-07T07:15:18;18.70;70.60
68433;DHT22;55412;51.350;17.056;2023-08-07T07:17:44;18.80;69.90
68433;DHT22;55412;51.350;17.056;2023-08-07T07:20:10;18.90;70.50
68433;DHT22;55412;51.350;17.056;2023-08-07T07:22:37;19.00;70.20
68433;DHT22;55412;51.350;17.056;2023-08-07T07:25:04;19.10;70.80
68433;DHT22;55412;51.350;17.056;2023-08-07T07:27:30;19.20;69.70
68433;DHT22;55412;51.350;17.056;2023-08-07T07:29:57;19.30;68.70
68433;DHT22;55412;51.350;17.056;2023-08-07T07:32:23;19.40;68.10
68433;DHT22;55412;51.350;17.056;2023-08-07T07:34:51;19.50;67.10
68433;DHT22;55412;51.350;17.056;2023-08-07T07:37:21;19.60;66.20
68433;DHT22;55412;51.350;17.056;2023-08-07T07:39:47;19.70;65.30
68433;DHT22;55412;51.350;17.056;2023-08-07T07:42:14;19.80;66.20
68433;DHT22;55412;51.350;17.056;2023-08-07T07:44:40;19.90;66.70
68433;DHT22;55412;51.350;17.056;2023-08-07T07:47:07;20.10;66.10
68433;DHT22;55412;51.350;17.056;2023-08-07T07:49:33;20.20;66.50
68433;DHT22;55412;51.350;17.056;2023-08-07T07:52:00;20.40;65.20
68433;DHT22;55412;51.350;17.056;2023-08-07T07:54:28;20.50;64.50
68433;DHT22;55412;51.350;17.056;2023-08-07T07:56:55;20.60;63.40
68433;DHT22;55412;51.350;17.056;2023-08-07T07:59:21;20.60;65.40
68433;DHT22;55412;51.350;17.056;2023-08-07T08:01:47;20.70;65.20
68433;DHT22;55412;51.350;17.056;2023-08-07T08:04:17;20.70;65.00
68433;DHT22;55412;51.350;17.056;2023-08-07T08:06:44;20.80;65.90
68433;DHT22;55412;51.350;17.056;2023-08-07T08:09:13;20.80;66.30
68433;DHT22;55412;51.350;17.056;2023-08-07T08:11:41;20.90;66.20
68433;DHT22;55412;51.350;17.056;2023-08-07T08:14:10;20.90;65.20
68433;DHT22;55412;51.350;17.056;2023-08-07T08:16:36;20.90;65.30
68433;DHT22;55412;51.350;17.056;2023-08-07T08:19:02;21.00;65.60
68433;DHT22;55412;51.350;17.056;2023-08-07T08:21:28;21.00;65.40
68433;DHT22;55412;51.350;17.056;2023-08-07T08:23:56;21.10;65.10
68433;DHT22;55412;51.350;17.056;2023-08-07T08:26:22;21.10;64.10
68433;DHT22;55412;51.350;17.056;2023-08-07T08:28:48;21.10;64.90
68433;DHT22;55412;51.350;17.056;2023-08-07T08:31:15;21.10;64.10
68433;DHT22;55412;51.350;17.056;2023-08-07T08:33:41;21.10;64.10
68433;DHT22;55412;51.350;17.056;2023-08-07T08:36:07;21.10;64.30
68433;DHT22;55412;51.350;17.056;2023-08-07T08:38:33;21.20;64.10
68433;DHT22;55412;51.350;17.056;2023-08-07T08:41:02;21.20;65.10
68433;DHT22;55412;51.350;17.056;2023-08-07T08:43:34;21.20;66.30
68433;DHT22;55412;51.350;17.056;2023-08-07T08:46:08;21.20;63.40
68433;DHT22;55412;51.350;17.056;2023-08-07T08:48:35;21.10;63.50
68433;DHT22;55412;51.350;17.056;2023-08-07T08:51:05;21.10;63.50
68433;DHT22;55412;51.350;17.056;2023-08-07T08:53:32;21.10;63.30
68433;DHT22;55412;51.350;17.056;2023-08-07T08:56:00;21.10;61.90
68433;DHT22;55412;51.350;17.056;2023-08-07T08:58:27;21.10;62.30
68433;DHT22;55412;51.350;17.056;2023-08-07T09:00:53;21.10;60.60
68433;DHT22;55412;51.350;17.056;2023-08-07T09:03:20;21.10;61.90
68433;DHT22;55412;51.350;17.056;2023-08-07T09:05:47;21.10;60.90
68433;DHT22;55412;51.350;17.056;2023-08-07T09:08:15;21.10;60.30
68433;DHT22;55412;51.350;17.056;2023-08-07T09:10:42;21.10;60.50
68433;DHT22;55412;51.350;17.056;2023-08-07T09:13:14;21.10;60.80
68433;DHT22;55412;51.350;17.056;2023-08-07T09:15:41;21.10;60.00
68433;DHT22;55412;51.350;17.056;2023-08-07T09:18:13;21.10;60.50
68433;DHT22;55412;51.350;17.056;2023-08-07T09:20:40;21.20;60.50
68433;DHT22;55412;51.350;17.056;2023-08-07T09:23:07;21.20;60.70
68433;DHT22;55412;51.350;17.056;2023-08-07T09:25:34;21.20;60.10
68433;DHT22;55412;51.350;17.056;2023-08-07T09:28:05;21.20;60.50
68433;DHT22;55412;51.350;17.056;2023-08-07T09:30:34;21.20;60.10
68433;DHT22;55412;51.350;17.056;2023-08-07T09:33:02;21.30;59.90
68433;DHT22;55412;51.350;17.056;2023-08-07T09:35:29;21.30;60.60
68433;DHT22;55412;51.350;17.056;2023-08-07T09:38:00;21.40;58.60
68433;DHT22;55412;51.350;17.056;2023-08-07T09:40:26;21.40;59.00
68433;DHT22;55412;51.350;17.056;2023-08-07T09:42:53;21.50;59.70
68433;DHT22;55412;51.350;17.056;2023-08-07T09:45:25;21.50;58.70
68433;DHT22;55412;51.350;17.056;2023-08-07T09:50:28;21.50;56.60
68433;DHT22;55412;51.350;17.056;2023-08-07T09:52:55;21.50;57.20
68433;DHT22;55412;51.350;17.056;2023-08-07T09:55:24;21.40;55.50
68433;DHT22;55412;51.350;17.056;2023-08-07T09:57:53;21.40;55.10
68433;DHT22;55412;51.350;17.056;2023-08-07T10:00:19;21.30;56.20
68433;DHT22;55412;51.350;17.056;2023-08-07T10:02:47;21.30;57.90
68433;DHT22;55412;51.350;17.056;2023-08-07T10:05:15;21.30;58.90
68433;DHT22;55412;51.350;17.056;2023-08-07T10:07:42;21.30;58.60
68433;DHT22;55412;51.350;17.056;2023-08-07T10:10:10;21.30;59.00
68433;DHT22;55412;51.350;17.056;2023-08-07T10:12:37;21.20;57.80
68433;DHT22;55412;51.350;17.056;2023-08-07T10:15:04;21.10;59.00
68433;DHT22;55412;51.350;17.056;2023-08-07T10:17:32;21.20;58.40
68433;DHT22;55412;51.350;17.056;2023-08-07T10:19:59;21.10;57.90
68433;DHT22;55412;51.350;17.056;2023-08-07T10:22:27;21.10;57.60
68433;DHT22;55412;51.350;17.056;2023-08-07T10:25:01;21.10;57.40
68433;DHT22;55412;51.350;17.056;2023-08-07T10:27:31;21.10;58.20
68433;DHT22;55412;51.350;17.056;2023-08-07T10:30:02;21.20;57.30
68433;DHT22;55412;51.350;17.056;2023-08-07T10:32:32;21.20;58.00
68433;DHT22;55412;51.350;17.056;2023-08-07T10:34:59;21.20;57.10
68433;DHT22;55412;51.350;17.056;2023-08-07T10:37:41;21.20;57.40
68433;DHT22;55412;51.350;17.056;2023-08-07T10:40:11;21.20;56.60
68433;DHT22;55412;51.350;17.056;2023-08-07T10:43:26;21.20;56.40
68433;DHT22;55412;51.350;17.056;2023-08-07T10:45:45;21.30;56.10
68433;DHT22;55412;51.350;17.056;2023-08-07T10:48:12;21.30;56.80
68433;DHT22;55412;51.350;17.056;2023-08-07T10:56:09;21.40;56.50
68433;DHT22;55412;51.350;17.056;2023-08-07T10:58:39;21.40;55.20
68433;DHT22;55412;51.350;17.056;2023-08-07T11:01:39;21.40;56.50
68433;DHT22;55412;51.350;17.056;2023-08-07T11:04:11;21.50;55.10
68433;DHT22;55412;51.350;17.056;2023-08-07T11:06:41;21.50;54.60
68433;DHT22;55412;51.350;17.056;2023-08-07T11:09:09;21.50;55.70
68433;DHT22;55412;51.350;17.056;2023-08-07T11:11:45;21.50;53.00
68433;DHT22;55412;51.350;17.056;2023-08-07T11:14:19;21.40;54.80
68433;DHT22;55412;51.350;17.056;2023-08-07T11:16:47;21.50;56.60
68433;DHT22;55412;51.350;17.056;2023-08-07T11:19:15;21.40;55.50
68433;DHT22;55412;51.350;17.056;2023-08-07T11:21:44;21.50;54.10
68433;DHT22;55412;51.350;17.056;2023-08-07T11:24:14;21.40;51.90
68433;DHT22;55412;51.350;17.056;2023-08-07T11:26:45;21.40;52.70
68433;DHT22;55412;51.350;17.056;2023-08-07T11:29:17;21.30;54.30
68433;DHT22;55412;51.350;17.056;2023-08-07T11:31:43;21.30;54.70
68433;DHT22;55412;51.350;17.056;2023-08-07T11:34:10;21.20;55.60
68433;DHT22;55412;51.350;17.056;2023-08-07T11:36:42;21.10;55.80
68433;DHT22;55412;51.350;17.056;2023-08-07T11:39:09;21.10;54.90
68433;DHT22;55412;51.350;17.056;2023-08-07T11:41:36;21.00;56.30
68433;DHT22;55412;51.350;17.056;2023-08-07T11:44:03;21.00;55.60
68433;DHT22;55412;51.350;17.056;2023-08-07T11:46:30;21.00;56.70
68433;DHT22;55412;51.350;17.056;2023-08-07T11:48:56;21.00;56.10
68433;DHT22;55412;51.350;17.056;2023-08-07T11:51:23;21.10;54.60
68433;DHT22;55412;51.350;17.056;2023-08-07T11:53:49;21.10;55.40
68433;DHT22;55412;51.350;17.056;2023-08-07T11:56:16;21.10;54.10
68433;DHT22;55412;51.350;17.056;2023-08-07T11:58:45;21.20;55.70
68433;DHT22;55412;51.350;17.056;2023-08-07T12:01:15;21.20;54.70
68433;DHT22;55412;51.350;17.056;2023-08-07T12:06:36;21.40;54.40
68433;DHT22;55412;51.350;17.056;2023-08-07T12:09:05;21.40;54.00
68433;DHT22;55412;51.350;17.056;2023-08-07T12:11:39;21.40;54.00
68433;DHT22;55412;51.350;17.056;2023-08-07T12:14:06;21.50;55.10
68433;DHT22;55412;51.350;17.056;2023-08-07T12:16:36;21.60;55.10
68433;DHT22;55412;51.350;17.056;2023-08-07T12:19:03;21.60;55.70
68433;DHT22;55412;51.350;17.056;2023-08-07T12:21:30;21.70;55.20
68433;DHT22;55412;51.350;17.056;2023-08-07T12:23:59;21.80;55.00
68433;DHT22;55412;51.350;17.056;2023-08-07T12:26:25;21.80;54.20
68433;DHT22;55412;51.350;17.056;2023-08-07T12:28:53;21.90;53.70
68433;DHT22;55412;51.350;17.056;2023-08-07T12:31:26;21.90;53.90
68433;DHT22;55412;51.350;17.056;2023-08-07T12:33:59;21.90;54.40
68433;DHT22;55412;51.350;17.056;2023-08-07T12:36:25;22.00;55.30
68433;DHT22;55412;51.350;17.056;2023-08-07T12:38:51;22.00;55.10
68433;DHT22;55412;51.350;17.056;2023-08-07T12:41:19;22.00;54.60
68433;DHT22;55412;51.350;17.056;2023-08-07T12:43:46;22.10;54.90
68433;DHT22;55412;51.350;17.056;2023-08-07T12:46:13;22.10;54.40
68433;DHT22;55412;51.350;17.056;2023-08-07T12:48:40;22.10;54.90
68433;DHT22;55412;51.350;17.056;2023-08-07T12:51:07;22.10;54.60
68433;DHT22;55412;51.350;17.056;2023-08-07T12:53:39;22.20;54.80
68433;DHT22;55412;51.350;17.056;2023-08-07T12:56:10;22.20;53.80
68433;DHT22;55412;51.350;17.056;2023-08-07T12:58:37;22.20;54.30
68433;DHT22;55412;51.350;17.056;2023-08-07T13:01:04;22.20;54.20
68433;DHT22;55412;51.350;17.056;2023-08-07T13:03:31;22.20;53.50
68433;DHT22;55412;51.350;17.056;2023-08-07T13:05:58;22.20;53.40
68433;DHT22;55412;51.350;17.056;2023-08-07T13:08:25;22.20;53.30
68433;DHT22;55412;51.350;17.056;2023-08-07T13:10:51;22.20;52.70
68433;DHT22;55412;51.350;17.056;2023-08-07T13:13:19;22.20;53.20
68433;DHT22;55412;51.350;17.056;2023-08-07T13:15:46;22.20;53.60
68433;DHT22;55412;51.350;17.056;2023-08-07T13:18:16;22.20;52.90
68433;DHT22;55412;51.350;17.056;2023-08-07T13:20:42;22.20;53.00
68433;DHT22;55412;51.350;17.056;2023-08-07T13:23:09;22.20;52.00
68433;DHT22;55412;51.350;17.056;2023-08-07T13:25:36;22.20;51.60
68433;DHT22;55412;51.350;17.056;2023-08-07T13:28:03;22.00;51.70
68433;DHT22;55412;51.350;17.056;2023-08-07T13:30:35;22.00;52.60
68433;DHT22;55412;51.350;17.056;2023-08-07T13:33:02;22.00;52.80
68433;DHT22;55412;51.350;17.056;2023-08-07T13:35:28;21.90;53.00
68433;DHT22;55412;51.350;17.056;2023-08-07T13:37:55;21.90;53.40
68433;DHT22;55412;51.350;17.056;2023-08-07T13:40:21;21.80;54.30
68433;DHT22;55412;51.350;17.056;2023-08-07T13:42:47;21.80;55.60
68433;DHT22;55412;51.350;17.056;2023-08-07T13:45:13;21.70;56.40
68433;DHT22;55412;51.350;17.056;2023-08-07T13:47:40;21.60;56.20
68433;DHT22;55412;51.350;17.056;2023-08-07T13:50:07;21.50;57.00
68433;DHT22;55412;51.350;17.056;2023-08-07T13:52:38;21.50;57.80
68433;DHT22;55412;51.350;17.056;2023-08-07T13:55:05;21.30;58.80
68433;DHT22;55412;51.350;17.056;2023-08-07T13:57:32;21.20;59.30
68433;DHT22;55412;51.350;17.056;2023-08-07T13:59:58;21.10;60.00
68433;DHT22;55412;51.350;17.056;2023-08-07T14:02:24;21.00;60.60
68433;DHT22;55412;51.350;17.056;2023-08-07T14:04:51;21.00;61.50
68433;DHT22;55412;51.350;17.056;2023-08-07T14:07:21;20.90;62.40
68433;DHT22;55412;51.350;17.056;2023-08-07T14:09:49;20.80;63.90
68433;DHT22;55412;51.350;17.056;2023-08-07T14:12:15;20.70;65.40
68433;DHT22;55412;51.350;17.056;2023-08-07T14:14:42;20.70;64.80
68433;DHT22;55412;51.350;17.056;2023-08-07T14:17:08;20.70;64.50
68433;DHT22;55412;51.350;17.056;2023-08-07T14:19:34;20.70;64.40
68433;DHT22;55412;51.350;17.056;2023-08-07T14:22:01;20.70;64.50
68433;DHT22;55412;51.350;17.056;2023-08-07T14:24:27;20.70;64.80
68433;DHT22;55412;51.350;17.056;2023-08-07T14:26:53;20.70;65.60
68433;DHT22;55412;51.350;17.056;2023-08-07T14:29:19;20.70;65.90
68433;DHT22;55412;51.350;17.056;2023-08-07T14:31:45;20.70;64.60
68433;DHT22;55412;51.350;17.056;2023-08-07T14:34:11;20.70;64.50
68433;DHT22;55412;51.350;17.056;2023-08-07T14:36:38;20.70;64.10
68433;DHT22;55412;51.350;17.056;2023-08-07T14:39:04;20.70;64.10
68433;DHT22;55412;51.350;17.056;2023-08-07T14:41:30;20.70;63.30
68433;DHT22;55412;51.350;17.056;2023-08-07T14:43:56;20.70;62.10
68433;DHT22;55412;51.350;17.056;2023-08-07T14:46:22;20.60;62.20
68433;DHT22;55412;51.350;17.056;2023-08-07T14:48:49;20.60;62.30
68433;DHT22;55412;51.350;17.056;2023-08-07T14:51:16;20.60;62.20
68433;DHT22;55412;51.350;17.056;2023-08-07T14:53:42;20.60;62.60
68433;DHT22;55412;51.350;17.056;2023-08-07T14:56:08;20.60;63.20
68433;DHT22;55412;51.350;17.056;2023-08-07T14:58:34;20.50;64.40
68433;DHT22;55412;51.350;17.056;2023-08-07T15:01:01;20.50;65.50
68433;DHT22;55412;51.350;17.056;2023-08-07T15:03:27;20.50;65.50
68433;DHT22;55412;51.350;17.056;2023-08-07T15:05:53;20.50;66.30
68433;DHT22;55412;51.350;17.056;2023-08-07T15:08:19;20.40;66.80
68433;DHT22;55412;51.350;17.056;2023-08-07T15:10:45;20.40;67.10
68433;DHT22;55412;51.350;17.056;2023-08-07T15:13:11;20.40;66.30
68433;DHT22;55412;51.350;17.056;2023-08-07T15:15:37;20.40;65.60
68433;DHT22;55412;51.350;17.056;2023-08-07T15:18:03;20.40;64.50
68433;DHT22;55412;51.350;17.056;2023-08-07T15:20:33;20.40;63.80
68433;DHT22;55412;51.350;17.056;2023-08-07T15:23:00;20.40;64.00
68433;DHT22;55412;51.350;17.056;2023-08-07T15:25:26;20.40;64.10
68433;DHT22;55412;51.350;17.056;2023-08-07T15:27:53;20.40;63.90
68433;DHT22;55412;51.350;17.056;2023-08-07T15:30:23;20.40;63.60
68433;DHT22;55412;51.350;17.056;2023-08-07T15:32:57;20.40;63.50